createdAt,value
2023-01-13T04:56:16.728Z,100851.63
2023-01-13T04:59:19.228Z,100851.63
2023-01-13T05:02:21.437Z,100854.66
2023-01-13T05:05:24.071Z,100854.09
2023-01-13T05:08:26.262Z,100866.69
2023-01-13T05:11:47.683Z,100854.56
2023-01-13T05:15:08.600Z,100853.50
2023-01-13T05:18:11.351Z,100854.31
2023-01-13T05:21:33.416Z,100868.53
2023-01-13T05:24:54.379Z,100870.28
2023-01-13T05:27:59.016Z,100875.81
2023-01-13T05:31:01.946Z,100878.81
2023-01-13T05:34:04.140Z,100886.44
2023-01-13T05:37:07.911Z,100879.06
2023-01-13T05:40:30.351Z,100874.88
2023-01-13T05:43:34.689Z,100875.69
2023-01-13T05:46:38.526Z,100872.59
2023-01-13T05:49:42.333Z,100877.44
2023-01-13T05:52:44.475Z,100882.62
2023-01-13T05:55:46.873Z,100882.62
2023-01-13T05:58:48.988Z,100874.19
2023-01-13T06:01:51.398Z,100872.56
2023-01-13T06:04:53.832Z,100885.72
2023-01-13T06:08:00.306Z,100894.16
2023-01-13T06:11:02.659Z,100881.69
2023-01-13T06:14:04.738Z,100881.34
2023-01-13T06:17:12.567Z,100880.31
2023-01-13T06:20:15.734Z,100884.22
2023-01-13T06:23:18.997Z,100885.72
2023-01-13T06:26:24.814Z,100886.88
2023-01-13T06:29:27.204Z,100880.06
2023-01-13T06:32:35.422Z,100879.91
2023-01-13T06:35:40.458Z,100878.81
2023-01-13T06:38:47.719Z,100886.97
2023-01-13T06:42:12.546Z,100886.78
2023-01-13T06:45:14.762Z,100886.56
2023-01-13T06:48:18.781Z,100899.47
2023-01-13T06:51:20.942Z,100892.56
2023-01-13T06:54:23.301Z,100897.87
2023-01-13T06:57:25.419Z,100888.41
2023-01-13T07:00:28.078Z,100892.44
2023-01-13T07:03:30.305Z,100900.31
2023-01-13T07:06:32.779Z,100893.59
2023-01-13T07:09:34.878Z,100900.78
2023-01-13T07:12:59.699Z,100899.84
2023-01-13T07:16:04.576Z,100907.69
2023-01-13T07:19:10.489Z,100904.81
2023-01-13T07:22:14.123Z,100900.63
2023-01-13T07:25:16.485Z,100888.28
2023-01-13T07:28:18.626Z,100896.72
2023-01-13T07:31:21.675Z,100896.62
2023-01-13T07:34:23.828Z,100893.94
2023-01-13T07:37:26.232Z,100897.31
2023-01-13T07:40:28.412Z,100899.03
2023-01-13T07:43:33.564Z,100897.87
2023-01-13T07:46:35.797Z,100910.12
2023-01-13T07:49:38.206Z,100907.94
2023-01-13T07:52:40.434Z,100908.88
2023-01-13T07:55:43.809Z,100916.94
2023-01-13T07:58:50.310Z,100919.34
2023-01-13T08:01:53.448Z,100918.78
2023-01-13T08:04:56.013Z,100925.37
2023-01-13T08:07:58.135Z,100927.56
2023-01-13T08:11:05.281Z,100929.38
2023-01-13T08:14:07.394Z,100935.97
2023-01-13T08:17:10.340Z,100934.47
2023-01-13T08:20:12.539Z,100942.09
2023-01-13T08:23:15.358Z,100933.06
2023-01-13T08:26:18.482Z,100934.59
2023-01-13T08:29:20.891Z,100946.16
2023-01-13T08:32:23.035Z,100941.63
2023-01-13T08:35:25.449Z,100942.44
2023-01-13T08:38:27.632Z,100947.19
2023-01-13T08:42:05.542Z,100948.31
2023-01-13T08:45:09.049Z,100960.69
2023-01-13T08:48:11.503Z,100952.50
2023-01-13T08:51:13.835Z,100952.50
2023-01-13T08:54:17.535Z,100969.94
2023-01-13T08:57:19.834Z,100967.22
2023-01-13T09:00:22.429Z,100973.16
2023-01-13T09:03:24.595Z,100971.53
2023-01-13T09:06:27.130Z,100968.00
2023-01-13T09:09:29.317Z,100967.34
2023-01-13T09:12:50.542Z,100968.34
2023-01-13T09:15:59.176Z,100969.84
2023-01-13T09:19:01.672Z,100968.78
2023-01-13T09:22:04.196Z,100960.62
2023-01-13T09:25:06.917Z,100960.09
2023-01-13T09:28:09.140Z,100959.31
2023-01-13T09:31:11.592Z,100953.78
2023-01-13T09:34:35.031Z,100958.63
2023-01-13T09:37:39.679Z,100961.44
2023-01-13T09:40:43.694Z,100953.44
2023-01-13T09:43:56.474Z,100954.12
2023-01-13T09:47:04.327Z,100954.00
2023-01-13T09:50:31.051Z,100940.34
2023-01-13T09:53:57.308Z,100943.00
2023-01-13T09:57:00.016Z,100945.66
2023-01-13T10:00:03.606Z,100942.19
2023-01-13T10:03:26.024Z,100938.37
2023-01-13T10:06:38.674Z,100935.84
2023-01-13T10:09:53.535Z,100944.16
2023-01-13T10:13:14.178Z,100938.28
2023-01-13T10:16:28.395Z,100936.28
2023-01-13T10:20:15.093Z,100935.13
2023-01-13T10:23:50.557Z,100937.44
2023-01-13T10:27:16.817Z,100939.16
2023-01-13T10:30:31.268Z,100935.81
2023-01-13T10:33:33.784Z,100933.47
2023-01-13T10:36:35.974Z,100940.34
2023-01-13T10:39:44.819Z,100938.59
2023-01-13T10:42:46.940Z,100936.59
2023-01-13T10:45:58.206Z,100923.22
2023-01-13T10:49:03.851Z,100928.50
2023-01-13T10:52:26.880Z,100908.25
2023-01-13T10:55:34.406Z,100915.16
2023-01-13T10:58:36.809Z,100912.72
2023-01-13T11:01:42.879Z,100896.81
2023-01-13T11:05:02.602Z,100885.06
2023-01-13T11:08:05.258Z,100886.59
2023-01-13T11:11:26.712Z,100886.25
2023-01-13T11:14:41.525Z,100885.34
2023-01-13T11:18:00.486Z,100876.69
2023-01-13T11:21:06.713Z,100868.47
2023-01-13T11:24:11.880Z,100873.03
2023-01-13T11:27:38.086Z,100867.37
2023-01-13T11:30:56.553Z,100864.25
2023-01-13T11:34:04.860Z,100858.59
2023-01-13T11:37:21.321Z,100856.16
2023-01-13T11:40:49.287Z,100858.00
2023-01-13T11:43:59.124Z,100855.34
2023-01-13T11:47:01.688Z,100861.06
2023-01-13T11:50:07.438Z,100851.69
2023-01-13T11:53:26.871Z,100848.41
2023-01-13T11:56:52.486Z,100842.88
2023-01-13T12:00:04.014Z,100832.22
2023-01-13T12:03:23.329Z,100828.69
2023-01-13T12:06:35.904Z,100821.03
2023-01-13T12:09:45.220Z,100822.72
2023-01-13T12:13:07.719Z,100809.25
2023-01-13T12:16:26.929Z,100790.94
2023-01-13T12:19:30.997Z,100787.13
2023-01-13T12:22:35.960Z,100774.47
2023-01-13T12:25:50.480Z,100777.03
2023-01-13T12:29:28.359Z,100783.09
2023-01-13T12:32:38.086Z,100774.84
2023-01-13T12:35:49.150Z,100775.75
2023-01-13T12:38:59.430Z,100783.81
2023-01-13T12:42:35.226Z,100788.91
2023-01-13T12:45:37.597Z,100799.78
2023-01-13T12:48:54.703Z,100786.78
2023-01-13T12:51:56.986Z,100794.56
2023-01-13T12:55:02.822Z,100787.06
2023-01-13T12:58:08.190Z,100784.62
2023-01-13T13:01:15.188Z,100792.38
2023-01-13T13:04:51.155Z,100775.97
2023-01-13T13:08:07.407Z,100771.78
2023-01-13T13:11:53.733Z,100775.44
2023-01-13T13:14:55.828Z,100786.63
2023-01-13T13:18:16.983Z,100782.78
2023-01-13T13:21:19.188Z,100787.66
2023-01-13T13:24:21.749Z,100794.44
2023-01-13T13:27:48.910Z,100798.09
2023-01-13T13:31:05.744Z,100787.59
2023-01-13T13:34:29.320Z,100791.69
2023-01-13T13:38:15.497Z,100788.91
2023-01-13T13:41:41.386Z,100785.31
2023-01-13T13:45:06.551Z,100782.50
2023-01-13T13:48:26.738Z,100781.97
2023-01-13T13:51:39.197Z,100793.19
2023-01-13T13:54:47.605Z,100788.47
2023-01-13T13:57:52.705Z,100794.41
2023-01-13T14:00:56.291Z,100795.44
2023-01-13T14:04:21.418Z,100797.22
2023-01-13T14:07:23.628Z,100797.38
2023-01-13T14:10:36.128Z,100800.28
2023-01-13T14:13:38.282Z,100804.91
2023-01-13T14:16:41.256Z,100808.41
2023-01-13T14:19:47.631Z,100805.38
2023-01-13T14:22:53.225Z,100805.88
2023-01-13T14:26:00.851Z,100807.69
2023-01-13T14:29:04.155Z,100811.41
2023-01-13T14:32:07.260Z,100815.19
2023-01-13T14:35:10.408Z,100808.31
2023-01-13T14:38:16.318Z,100816.00
2023-01-13T14:41:22.823Z,100810.84
2023-01-13T14:44:30.797Z,100805.97
2023-01-13T14:47:34.013Z,100822.03
2023-01-13T14:50:36.718Z,100822.03
2023-01-13T14:53:46.840Z,100814.22
2023-01-13T14:56:55.060Z,100812.16
2023-01-13T15:00:15.759Z,100812.22
2023-01-13T15:03:20.714Z,100816.91
2023-01-13T15:06:25.417Z,100819.03
2023-01-13T15:09:33.291Z,100809.75
2023-01-13T15:12:40.685Z,100815.69
2023-01-13T15:15:42.906Z,100814.97
2023-01-13T15:18:45.670Z,100814.56
2023-01-13T15:21:47.779Z,100807.88
2023-01-13T15:24:50.213Z,100808.56
2023-01-13T15:27:52.980Z,100808.81
2023-01-13T15:31:00.535Z,100803.50
2023-01-13T15:34:02.719Z,100809.31
2023-01-13T15:37:05.057Z,100816.75
2023-01-13T15:40:23.720Z,100819.50
2023-01-13T15:43:44.857Z,100819.78
2023-01-13T15:46:47.305Z,100816.44
2023-01-13T15:49:49.692Z,100818.47
2023-01-13T15:52:51.790Z,100807.00
2023-01-13T15:55:57.620Z,100812.94
2023-01-13T15:58:59.760Z,100831.75
2023-01-13T16:02:02.185Z,100826.13
2023-01-13T16:05:06.057Z,100824.44
2023-01-13T16:08:18.882Z,100830.88
2023-01-13T16:11:21.294Z,100829.47
2023-01-13T16:14:23.487Z,100826.81
2023-01-13T16:17:30.225Z,100831.94
2023-01-13T16:20:32.325Z,100824.69
2023-01-13T16:23:34.743Z,100830.03
2023-01-13T16:26:38.853Z,100827.53
2023-01-13T16:29:41.962Z,100824.94
2023-01-13T16:32:44.077Z,100827.37
2023-01-13T16:36:10.523Z,100822.94
